Map

Track Data

SID SEASON NUMBER BASIN SUBBASIN NAME ISO_TIME NATURE LAT LON WMO_WIND WMO_PRES WMO_AGENCY TRACK_TYPE DIST2LAND LANDFALL IFLAG USA_AGENCY USA_ATCF_ID USA_LAT USA_LON USA_RECORD USA_STATUS USA_WIND USA_PRES USA_SSHS USA_R34_NE USA_R34_SE USA_R34_SW USA_R34_NW USA_R50_NE USA_R50_SE USA_R50_SW USA_R50_NW USA_R64_NE USA_R64_SE USA_R64_SW USA_R64_NW USA_POCI USA_ROCI USA_RMW USA_EYE TOKYO_LAT TOKYO_LON TOKYO_GRADE TOKYO_WIND TOKYO_PRES TOKYO_R50_DIR TOKYO_R50_LONG TOKYO_R50_SHORT TOKYO_R30_DIR TOKYO_R30_LONG TOKYO_R30_SHORT TOKYO_LAND CMA_LAT CMA_LON CMA_CAT CMA_WIND CMA_PRES HKO_LAT HKO_LON HKO_CAT HKO_WIND HKO_PRES NEWDELHI_LAT NEWDELHI_LON NEWDELHI_GRADE NEWDELHI_WIND NEWDELHI_PRES NEWDELHI_CI NEWDELHI_DP NEWDELHI_POCI REUNION_LAT REUNION_LON REUNION_TYPE REUNION_WIND REUNION_PRES REUNION_TNUM REUNION_CI REUNION_RMW REUNION_R34_NE REUNION_R34_SE REUNION_R34_SW REUNION_R34_NW REUNION_R50_NE REUNION_R50_SE REUNION_R50_SW REUNION_R50_NW REUNION_R64_NE REUNION_R64_SE REUNION_R64_SW REUNION_R64_NW BOM_LAT BOM_LON BOM_TYPE BOM_WIND BOM_PRES BOM_TNUM BOM_CI BOM_RMW BOM_R34_NE BOM_R34_SE BOM_R34_SW BOM_R34_NW BOM_R50_NE BOM_R50_SE BOM_R50_SW BOM_R50_NW BOM_R64_NE BOM_R64_SE BOM_R64_SW BOM_R64_NW BOM_ROCI BOM_POCI BOM_EYE BOM_POS_METHOD BOM_PRES_METHOD NADI_LAT NADI_LON NADI_CAT NADI_WIND NADI_PRES WELLINGTON_LAT WELLINGTON_LON WELLINGTON_WIND WELLINGTON_PRES DS824_LAT DS824_LON DS824_STAGE DS824_WIND DS824_PRES TD9636_LAT TD9636_LON TD9636_STAGE TD9636_WIND TD9636_PRES TD9635_LAT TD9635_LON TD9635_WIND TD9635_PRES TD9635_ROCI NEUMANN_LAT NEUMANN_LON NEUMANN_CLASS NEUMANN_WIND NEUMANN_PRES MLC_LAT MLC_LON MLC_CLASS MLC_WIND MLC_PRES USA_GUST BOM_GUST BOM_GUST_PER REUNION_GUST REUNION_GUST_PER USA_SEAHGT USA_SEARAD_NE USA_SEARAD_SE USA_SEARAD_SW USA_SEARAD_NW STORM_SPEED STORM_DIR
1934304S08071 1935 72 SI MM NOT_NAMED 1934-10-31 00:00:00 TS -7.70000 70.7000 main 1868 1868 _________O____ -1 -7.70000 70.7000 TC 25 6 260
1934304S08071 1935 72 SI MM NOT_NAMED 1934-10-31 03:00:00 TS -7.75004 70.4000 main 1897 1897 _________P____ -1 -7.75004 70.4000 TC 25 5 260
1934304S08071 1935 72 SI MM NOT_NAMED 1934-10-31 06:00:00 TS -7.77500 70.2500 main 1903 1903 _________OO___ -1 -7.80000 70.1000 TC 25 -7.70000 70.7000 1 4 260
1934304S08071 1935 72 SI MM NOT_NAMED 1934-10-31 09:00:00 TS -7.81879 70.0005 main 1910 1887 _________PP___ -1 -7.84998 69.8000 TC 25 -7.75642 70.4016 1 5 260
1934304S08071 1935 72 SI MM NOT_NAMED 1934-10-31 12:00:00 TS -7.86151 69.7583 main 1887 1865 _________OP___ -1 -7.90000 69.5000 TC 25 -7.81020 70.1026 1 5 260
1934304S08071 1935 72 SI MM NOT_NAMED 1934-10-31 15:00:00 TS -7.90817 69.5049 main 1865 1843 _________PP___ -1 -7.95746 69.2075 TC 25 -7.85887 69.8022 1 6 261
1934304S08071 1935 72 SI MM NOT_NAMED 1934-10-31 18:00:00 TS -7.95000 69.2000 main 1843 1813 _________OO___ -1 -8.00000 68.9000 TC 25 -7.90000 69.5000 1 6 264
1934304S08071 1935 72 SI MM NOT_NAMED 1934-10-31 21:00:00 TS -7.96977 68.8797 main 1813 1792 _________PP___ -1 -8.00747 68.5650 TC 25 -7.93207 69.1943 1 7 267
1934304S08071 1935 72 SI MM NOT_NAMED 1934-11-01 00:00:00 TS -7.97866 68.5400 main 1785 1764 _________OP___ -1 -8.00000 68.2000 TC 25 -7.95732 68.8799 1 7 269
1934304S08071 1935 72 SI MM NOT_NAMED 1934-11-01 03:00:00 TS -7.98570 68.1790 main 1764 1737 _________PP___ -1 -7.99248 67.8075 TC 25 -7.97892 68.5506 1 7 268
1934304S08071 1935 72 SI MM NOT_NAMED 1934-11-01 06:00:00 TS -8.00000 67.8000 main 1737 1710 _________OO___ -1 -8.00000 67.4000 TC 25 -8.00000 68.2000 1 8 267
1934304S08071 1935 72 SI MM NOT_NAMED 1934-11-01 09:00:00 TS -8.02966 67.4108 main 1710 1675 _________PP___ -1 -8.04246 67.0000 TC 25 -8.01686 67.8215 1 8 265
1934304S08071 1935 72 SI MM NOT_NAMED 1934-11-01 12:00:00 TS -8.06748 67.0112 main 1675 1650 _________OP___ -1 -8.10000 66.6000 TC 25 -8.03497 67.4224 1 8 265
1934304S08071 1935 72 SI MM NOT_NAMED 1934-11-01 15:00:00 TS -8.10152 66.6060 main 1650 1625 _________PP___ -1 -8.14246 66.2000 TC 25 -8.06059 67.0121 1 8 264
1934304S08071 1935 72 SI MM NOT_NAMED 1934-11-01 18:00:00 TS -8.15000 66.2000 main 1625 1592 _________OO___ -1 -8.20000 65.8000 TC 25 -8.10000 66.6000 1 8 260
1934304S08071 1935 72 SI MM NOT_NAMED 1934-11-01 21:00:00 TS -8.23813 65.7824 main 1592 1559 _________PP___ -1 -8.30750 65.3851 TC 25 -8.16876 66.1798 1 8 258
1934304S08071 1935 72 SI MM NOT_NAMED 1934-11-02 00:00:00 TS -8.32502 65.3813 main 1559 1527 _________OP___ -1 -8.40000 65.0000 TC 25 -8.25004 65.7627 1 8 260
1934304S08071 1935 72 SI MM NOT_NAMED 1934-11-02 03:00:00 TS -8.36937 65.0208 main 1527 1510 _________PP___ -1 -8.40745 64.6774 TC 25 -8.33129 65.3642 1 7 264
1934304S08071 1935 72 SI MM NOT_NAMED 1934-11-02 06:00:00 TS -8.40000 64.7000 main 1510 1495 _________OO___ -1 -8.40000 64.4000 TC 25 -8.40000 65.0000 1 6 263
1934304S08071 1935 72 SI MM NOT_NAMED 1934-11-02 09:00:00 TS -8.43875 64.4273 main 1495 1474 _________PP___ -1 -8.44244 64.1575 TC 25 -8.43506 64.6971 1 5 262
1934304S08071 1935 72 SI MM NOT_NAMED 1934-11-02 12:00:00 TS -8.47859 64.1637 main 1474 1459 _________OP___ -1 -8.50000 63.9000 TC 25 -8.45717 64.4274 1 6 262
1934304S08071 1935 72 SI MM NOT_NAMED 1934-11-02 15:00:00 TS -8.51287 63.8632 main 1459 1445 _________PP___ -1 -8.55002 63.5575 TC 25 -8.47571 64.1690 1 6 263
1934304S08071 1935 72 SI MM NOT_NAMED 1934-11-02 18:00:00 TS -8.55000 63.5500 main 1445 1421 _________OO___ -1 -8.60000 63.2000 TC 25 -8.50000 63.9000 1 6 262
1934304S08071 1935 72 SI MM NOT_NAMED 1934-11-02 21:00:00 TS -8.59640 63.2331 main 1416 1403 _________PP___ -1 -8.64997 62.8850 TC 25 -8.54283 63.5813 1 6 261
1934304S08071 1935 72 SI MM NOT_NAMED 1934-11-03 00:00:00 TS -8.64627 62.9250 main 1403 1384 _________OP___ -1 -8.70000 62.6000 TC 25 -8.59254 63.2500 1 6 260
1934304S08071 1935 72 SI MM NOT_NAMED 1934-11-03 03:00:00 TS -8.69796 62.6344 main 1380 1372 _________PP___ -1 -8.74995 62.3500 TC 25 -8.64596 62.9188 1 6 260
1934304S08071 1935 72 SI MM NOT_NAMED 1934-11-03 06:00:00 TS -8.75000 62.3500 main 1372 1350 _________OO___ -1 -8.80000 62.1000 TC 25 -8.70000 62.6000 1 6 259
1934304S08071 1935 72 SI MM NOT_NAMED 1934-11-03 09:00:00 TS -8.80572 62.0591 main 1350 1328 _________PP___ -1 -8.85749 61.8075 TC 25 -8.75395 62.3106 1 6 260
1934304S08071 1935 72 SI MM NOT_NAMED 1934-11-03 12:00:00 TS -8.85367 61.7675 main 1328 1318 _________OP___ -1 -8.90000 61.5000 TC 25 -8.80735 62.0350 1 6 263
1934304S08071 1935 72 SI MM NOT_NAMED 1934-11-03 15:00:00 TS -8.87854 61.4797 main 1318 1309 _________PP___ -1 -8.89999 61.1925 TC 25 -8.85708 61.7669 1 6 265
1934304S08071 1935 72 SI MM NOT_NAMED 1934-11-03 18:00:00 TS -8.90000 61.2000 main 1309 1286 _________OO___ -1 -8.90000 60.9000 TC 25 -8.90000 61.5000 1 6 264
1934304S08071 1935 72 SI MM NOT_NAMED 1934-11-03 21:00:00 TS -8.93735 60.9181 main 1286 1261 _________PP___ -1 -8.94249 60.6275 TC 25 -8.93220 61.2087 1 5 262
1934304S08071 1935 72 SI MM NOT_NAMED 1934-11-04 00:00:00 TS -8.97877 60.6600 main 1261 1241 _________OP___ -1 -9.00000 60.4000 TC 25 -8.95753 60.9200 1 5 260
1934304S08071 1935 72 SI MM NOT_NAMED 1934-11-04 03:00:00 TS -9.01828 60.4444 main 1231 1220 _________PP___ -1 -9.05746 60.2425 TC 25 -8.97909 60.6462 1 4 260
1934304S08071 1935 72 SI MM NOT_NAMED 1934-11-04 06:00:00 TS -9.05000 60.2500 main 1220 1196 _________OO___ -1 -9.10000 60.1000 TC 25 -9.00000 60.4000 1 4 263
1934304S08071 1935 72 SI MM NOT_NAMED 1934-11-04 09:00:00 TS -9.06244 60.0539 main 1196 1175 _________PP___ -1 -9.10000 59.9075 TC 25 -9.02488 60.2003 1 4 266
1934304S08071 1935 72 SI MM NOT_NAMED 1934-11-04 12:00:00 TS -9.07492 59.8637 main 1175 1155 _________OP___ -1 -9.10000 59.7000 TC 25 -9.04984 60.0275 1 4 262
1934304S08071 1935 72 SI MM NOT_NAMED 1934-11-04 15:00:00 TS -9.11244 59.6830 main 1155 1135 _________PP___ -1 -9.14999 59.5000 TC 25 -9.07489 59.8659 1 3 258
1934304S08071 1935 72 SI MM NOT_NAMED 1934-11-04 18:00:00 TS -9.14286 59.5286 main 1135 1121 _________OO___ -1 -9.20000 59.3000 TC 25 -9.10000 59.7000 1 3 262
1934304S08071 1935 72 SI MM NOT_NAMED 1934-11-04 21:00:00 TS -9.15424 59.3783 main 1121 1100 _________PP___ -1 -9.21252 59.1000 TC 25 -9.12511 59.5175 1 3 266
1934304S08071 1935 72 SI MM NOT_NAMED 1934-11-05 00:00:00 TS -9.16262 59.2150 main 1100 1090 _________OP___ -1 -9.20000 58.9000 TC 25 -9.15016 59.3200 1 3 265
1934304S08071 1935 72 SI MM NOT_NAMED 1934-11-05 03:00:00 NR -9.17514 59.1125 main 1090 1070 __________P___ -1 TC -9.17514 59.1125 1 3 263
1934304S08071 1935 72 SI MM NOT_NAMED 1934-11-05 06:00:00 NR -9.20000 58.9000 main 1070 __________O___ -1 -9.20000 58.9000 1 4 263

About IBTrACS Database

This database is a web-friendly format of International Best Track Archive for Climate Stewardship (IBTrACS), a global best track data archive curated by NOAA dating back to 1842.

Updated: 2021-12-01